Hauptseite
METAR-TAF:

METAR-TAF

Flughäfen :

Flughafen Albert-Picardie

Albert, Frankreich

Breite: 49-58-21N, Länge: 002-41-29E, Höhe: 111 m

Beobachtung

Neuester Wetterbericht von vor 31 Minuten, um 03:30 UTC
Wind 8 kt aus Südost
Temperatur 7°C
Luftfeuchtigkeit 100%
Luftdruck 1024 hPa
Sichtweite: 0550 m
Nebel

METAR: LFAQ 160330Z AUTO 14008KT 0600 0550 R27/0600D FG ////// 07/07 Q1024

Zeit: 05:01 (04:01 UTC)

Prognose

Neuester Wetterbericht von vor 14 Stunden und 1 Minuten, um 14:00 UTC
Gültige Prognose vom 15 um 15 UTC bis 15 um 24 UTC
Wind 8 kt aus Süd/Südost
Sichtweite: 0500 m
Nebel
Wahrscheinlichkeit 30%
vom 15 um 15 UTC bis 15 um 24 UTC
Sichtweite: 2000 m
Geschlossene Wolkendecke in der Höhe von 200 ft
feuchter Dunst

TAF: LFAQ 151400Z 1515/1524 15008KT 0500 FG VV/// PROB30 1515/1524 2000 BR OVC002

Wetterbeobachtungen und Prognosen von mehr als 4000 Flughäfen (METAR und TAF Bericht).

Die verfügbaren Stationen werden durch gelbe und rote Markierungen auf der Karte dargestellt.

Führen Sie die Maus auf sie, um den Namen der Station zu sehen.

Darauf klicken, um die Beobachtung von Wetterbeobachtungen und Prognosen zu sehen.

Um die Karte zu ändern : klicken Sie auf den grünen Tasten mit einem schwarzen Kreuz Zum Vergrößern, auf den grünen Button mit einem Gedankenstrich zu verkleinern, oder auf die grünen Pfeile für benachbarte Karten.


METAR-TAF: